createdAt,value
2022-11-22T00:01:51.364Z,80.27
2022-11-22T00:04:19.207Z,80.20
2022-11-22T00:06:47.014Z,80.49
2022-11-22T00:09:18.934Z,80.11
2022-11-22T00:11:46.912Z,80.35
2022-11-22T00:14:14.798Z,80.25
2022-11-22T00:16:43.282Z,80.73
2022-11-22T00:19:11.338Z,80.64
2022-11-22T00:21:39.219Z,80.48
2022-11-22T00:24:07.686Z,80.51
2022-11-22T00:26:36.894Z,81.14
2022-11-22T00:29:04.883Z,80.79
2022-11-22T00:31:33.331Z,80.45
2022-11-22T00:34:01.149Z,80.52
2022-11-22T00:36:28.938Z,80.80
2022-11-22T00:38:56.905Z,80.60
2022-11-22T00:41:24.896Z,81.23
2022-11-22T00:43:54.326Z,81.01
2022-11-22T00:46:22.214Z,80.99
2022-11-22T00:48:50.063Z,81.00
2022-11-22T00:51:20.952Z,81.25
2022-11-22T00:53:48.888Z,80.51
2022-11-22T00:56:16.878Z,81.10
2022-11-22T00:58:44.646Z,81.18
2022-11-22T01:01:28.791Z,80.66
2022-11-22T01:03:56.710Z,81.20
2022-11-22T01:06:24.618Z,80.63
2022-11-22T01:08:52.758Z,80.64
2022-11-22T01:11:20.826Z,80.76
2022-11-22T01:13:49.136Z,80.89
2022-11-22T01:16:17.529Z,81.11
2022-11-22T01:18:46.986Z,80.72
2022-11-22T01:21:14.952Z,80.42
2022-11-22T01:23:43.151Z,80.41
2022-11-22T01:26:14.265Z,80.87
2022-11-22T01:28:42.144Z,80.30
2022-11-22T01:31:10.521Z,81.04
2022-11-22T01:33:38.295Z,81.01
2022-11-22T01:36:07.765Z,80.55
2022-11-22T01:38:35.639Z,80.97
2022-11-22T01:41:04.494Z,80.53
2022-11-22T01:43:32.658Z,81.10
2022-11-22T01:46:03.359Z,80.84
2022-11-22T01:48:49.939Z,80.82
2022-11-22T01:51:25.713Z,80.35
2022-11-22T01:53:57.210Z,80.44
2022-11-22T01:56:25.847Z,80.60
2022-11-22T01:58:59.659Z,81.11
2022-11-22T02:01:28.788Z,80.87
2022-11-22T02:04:07.903Z,80.81
2022-11-22T02:06:49.858Z,80.67
2022-11-22T02:09:20.643Z,80.60
2022-11-22T02:11:55.168Z,80.93
2022-11-22T02:14:25.474Z,81.61
2022-11-22T02:16:56.486Z,80.82
2022-11-22T02:19:32.651Z,81.33
2022-11-22T02:22:08.686Z,80.92
2022-11-22T02:24:43.520Z,81.02
2022-11-22T02:27:12.882Z,80.63
2022-11-22T02:29:41.252Z,81.37
2022-11-22T02:32:09.164Z,81.21
2022-11-22T02:34:45.053Z,81.17
2022-11-22T02:37:20.385Z,81.07
2022-11-22T02:39:51.440Z,81.42
2022-11-22T02:42:20.667Z,81.32
2022-11-22T02:44:48.501Z,81.06
2022-11-22T02:47:18.971Z,81.22
2022-11-22T02:49:46.765Z,81.05
2022-11-22T02:52:18.377Z,81.16
2022-11-22T02:54:55.060Z,81.26
2022-11-22T02:57:26.811Z,81.06
2022-11-22T02:59:54.608Z,81.16
2022-11-22T03:02:22.503Z,81.36
2022-11-22T03:04:53.502Z,80.96
2022-11-22T03:07:21.404Z,80.84
2022-11-22T03:09:52.394Z,81.00
2022-11-22T03:12:20.298Z,81.24
2022-11-22T03:14:49.435Z,81.68
2022-11-22T03:17:17.432Z,81.55
2022-11-22T03:19:45.302Z,81.52
2022-11-22T03:22:13.150Z,81.25
2022-11-22T03:24:41.157Z,81.69
2022-11-22T03:27:08.991Z,81.66
2022-11-22T03:29:37.489Z,81.42
2022-11-22T03:32:06.848Z,81.64
2022-11-22T03:34:34.731Z,81.34
2022-11-22T03:37:02.787Z,81.23
2022-11-22T03:39:30.762Z,81.82
2022-11-22T03:42:00.617Z,81.62
2022-11-22T03:44:28.419Z,81.33
2022-11-22T03:46:56.404Z,81.73
2022-11-22T03:49:28.892Z,81.67
2022-11-22T03:51:56.882Z,81.63
2022-11-22T03:54:24.842Z,81.55
2022-11-22T03:56:55.215Z,81.43
2022-11-22T03:59:26.072Z,81.47
2022-11-22T04:01:54.072Z,81.48
2022-11-22T04:04:22.784Z,81.38
2022-11-22T04:06:52.089Z,81.62
2022-11-22T04:09:21.805Z,81.42
2022-11-22T04:11:49.716Z,81.90
2022-11-22T04:14:35.151Z,81.59
2022-11-22T04:17:09.278Z,81.76
2022-11-22T04:19:37.229Z,81.84
2022-11-22T04:22:05.871Z,81.39
2022-11-22T04:24:51.202Z,81.12
2022-11-22T04:27:19.161Z,81.65
2022-11-22T04:29:47.011Z,81.54
2022-11-22T04:32:33.876Z,81.76
2022-11-22T04:35:01.821Z,81.70
2022-11-22T04:37:51.071Z,81.51
2022-11-22T04:40:24.940Z,81.82
2022-11-22T04:43:10.721Z,81.83
2022-11-22T04:45:38.913Z,82.04
2022-11-22T04:48:07.475Z,81.39
2022-11-22T04:50:55.789Z,81.50
2022-11-22T04:53:25.573Z,81.73
2022-11-22T04:55:53.874Z,82.18
2022-11-22T04:58:24.812Z,81.70
2022-11-22T05:00:55.741Z,81.88
2022-11-22T05:03:23.646Z,81.47
2022-11-22T05:05:54.441Z,81.43
2022-11-22T05:08:24.940Z,81.40
2022-11-22T05:11:00.061Z,81.78
2022-11-22T05:13:30.572Z,81.71
2022-11-22T05:15:59.465Z,81.48
2022-11-22T05:18:29.969Z,81.69
2022-11-22T05:21:00.688Z,81.46
2022-11-22T05:24:01.463Z,81.89
2022-11-22T05:26:32.570Z,81.90
2022-11-22T05:29:04.162Z,81.82
2022-11-22T05:31:35.100Z,82.10
2022-11-22T05:34:03.262Z,82.28
2022-11-22T05:36:33.143Z,82.06
2022-11-22T05:39:01.567Z,82.11
2022-11-22T05:41:30.846Z,81.96
2022-11-22T05:43:59.421Z,81.54
2022-11-22T05:46:31.773Z,81.80
2022-11-22T05:49:00.721Z,82.01
2022-11-22T05:51:34.410Z,81.61
2022-11-22T05:54:02.823Z,82.25
2022-11-22T05:56:32.059Z,81.53
2022-11-22T05:58:59.929Z,82.02
2022-11-22T06:01:30.946Z,81.99
2022-11-22T06:03:59.106Z,81.79
2022-11-22T06:06:26.987Z,82.13
2022-11-22T06:08:54.851Z,82.33
2022-11-22T06:11:24.527Z,82.25
2022-11-22T06:13:55.354Z,81.94
2022-11-22T06:16:23.978Z,82.20
2022-11-22T06:18:59.248Z,81.79
2022-11-22T06:21:28.603Z,82.25
2022-11-22T06:23:56.779Z,82.57
2022-11-22T06:26:25.932Z,82.41
2022-11-22T06:28:55.793Z,82.47
2022-11-22T06:31:26.444Z,82.11
2022-11-22T06:33:55.219Z,82.39
2022-11-22T06:36:27.063Z,82.38
2022-11-22T06:38:55.580Z,82.37
2022-11-22T06:41:25.676Z,82.01
2022-11-22T06:43:57.569Z,82.45
2022-11-22T06:46:27.443Z,82.37
2022-11-22T06:48:55.484Z,82.28
2022-11-22T06:51:25.085Z,82.36
2022-11-22T06:53:56.934Z,82.48
2022-11-22T06:56:26.899Z,82.56
2022-11-22T06:59:04.916Z,82.45
2022-11-22T07:01:38.523Z,82.32
2022-11-22T07:04:09.421Z,82.49
2022-11-22T07:06:39.310Z,81.97
2022-11-22T07:09:09.324Z,82.38
2022-11-22T07:11:40.861Z,81.98
2022-11-22T07:14:10.341Z,82.58
2022-11-22T07:16:39.091Z,82.23
2022-11-22T07:19:07.916Z,82.32
2022-11-22T07:21:38.323Z,82.64
2022-11-22T07:24:08.018Z,82.27
2022-11-22T07:26:35.963Z,82.68
2022-11-22T07:29:04.806Z,82.15
2022-11-22T07:31:34.793Z,82.26
2022-11-22T07:34:02.847Z,82.38
2022-11-22T07:36:30.732Z,82.39
2022-11-22T07:39:04.796Z,81.94
2022-11-22T07:41:35.451Z,82.24
2022-11-22T07:44:03.423Z,81.97
2022-11-22T07:46:38.049Z,81.83
2022-11-22T07:49:06.173Z,81.71
2022-11-22T07:51:42.415Z,81.71
2022-11-22T07:54:12.925Z,81.81
2022-11-22T07:56:41.267Z,81.76
2022-11-22T07:59:09.108Z,81.41
2022-11-22T08:01:41.743Z,81.74
2022-11-22T08:04:09.713Z,81.51
2022-11-22T08:06:37.720Z,81.62
2022-11-22T08:09:08.057Z,81.36
2022-11-22T08:11:37.077Z,81.42
2022-11-22T08:14:05.085Z,81.11
2022-11-22T08:16:32.870Z,81.33
2022-11-22T08:19:02.331Z,81.32
2022-11-22T08:21:30.258Z,81.13
2022-11-22T08:24:00.035Z,81.48
2022-11-22T08:26:27.885Z,81.41
2022-11-22T08:28:55.922Z,81.17
2022-11-22T08:31:23.783Z,81.63
2022-11-22T08:33:56.748Z,81.49
2022-11-22T08:36:32.678Z,81.75
2022-11-22T08:39:00.814Z,81.84
2022-11-22T08:41:28.806Z,81.75
2022-11-22T08:43:56.902Z,81.76
2022-11-22T08:46:24.747Z,81.67
2022-11-22T08:48:54.181Z,81.27
2022-11-22T08:51:22.128Z,81.25
2022-11-22T08:53:51.470Z,81.22
2022-11-22T08:56:19.305Z,81.13
2022-11-22T08:58:47.219Z,80.93
2022-11-22T09:01:17.345Z,81.07
2022-11-22T09:03:46.369Z,80.92
2022-11-22T09:09:29.962Z,81.31
2022-11-22T09:11:54.955Z,80.78
2022-11-22T09:14:23.705Z,80.78
2022-11-22T09:16:57.798Z,80.67
2022-11-22T09:19:25.939Z,80.85
2022-11-22T09:21:57.029Z,80.42
2022-11-22T09:24:26.458Z,80.86
2022-11-22T09:26:54.501Z,80.06
2022-11-22T09:29:22.695Z,79.62
2022-11-22T09:31:50.609Z,80.43
2022-11-22T09:34:25.238Z,79.75
2022-11-22T09:36:53.466Z,79.64
2022-11-22T09:39:21.553Z,79.79
2022-11-22T09:42:22.226Z,80.13
2022-11-22T09:45:22.527Z,79.68
2022-11-22T09:48:03.070Z,80.21
2022-11-22T09:50:45.905Z,79.84
2022-11-22T09:53:27.574Z,80.34
2022-11-22T09:56:00.527Z,80.01
2022-11-22T09:58:32.223Z,80.44
2022-11-22T10:01:05.445Z,80.81
2022-11-22T10:03:46.667Z,79.93
2022-11-22T10:06:20.592Z,80.30
2022-11-22T10:09:00.080Z,80.14
2022-11-22T10:11:39.306Z,80.47
2022-11-22T10:14:25.460Z,79.65
2022-11-22T10:17:09.151Z,79.77
2022-11-22T10:19:46.203Z,79.92
2022-11-22T10:22:15.466Z,79.50
2022-11-22T10:24:44.293Z,79.88
2022-11-22T10:27:14.323Z,80.50
2022-11-22T10:29:45.465Z,79.47
2022-11-22T10:32:20.892Z,80.30
2022-11-22T10:35:21.674Z,79.49
2022-11-22T10:37:58.674Z,79.83
2022-11-22T10:40:34.466Z,79.58
2022-11-22T10:46:13.100Z,79.38
2022-11-22T10:48:50.394Z,79.57
2022-11-22T10:51:26.190Z,79.61
2022-11-22T10:54:10.145Z,79.70
2022-11-22T10:56:47.069Z,78.94
2022-11-22T10:59:38.719Z,79.03
2022-11-22T11:02:28.775Z,79.51
2022-11-22T11:05:01.355Z,79.47
2022-11-22T11:07:30.082Z,78.60
2022-11-22T11:10:27.457Z,79.17
2022-11-22T11:12:53.826Z,78.49
2022-11-22T11:15:24.287Z,78.52
2022-11-22T11:17:58.561Z,78.36
2022-11-22T11:20:31.578Z,78.61
2022-11-22T11:23:14.316Z,78.37
2022-11-22T11:25:44.531Z,78.62
2022-11-22T11:28:21.770Z,78.20
2022-11-22T11:30:56.269Z,78.32
2022-11-22T11:33:31.791Z,79.35
2022-11-22T11:36:07.831Z,78.89
2022-11-22T11:38:38.266Z,78.93
2022-11-22T11:41:27.334Z,78.92
2022-11-22T11:43:58.482Z,78.95
2022-11-22T11:46:49.102Z,78.86
2022-11-22T11:49:18.894Z,78.81
2022-11-22T11:51:59.927Z,79.25
2022-11-22T11:54:41.361Z,78.74
2022-11-22T11:57:12.012Z,78.69
2022-11-22T11:59:45.901Z,78.99
2022-11-22T12:02:17.041Z,79.47
2022-11-22T12:04:51.332Z,79.33
2022-11-22T12:07:24.331Z,79.44
2022-11-22T12:09:56.996Z,79.27
2022-11-22T12:12:45.824Z,79.44
2022-11-22T12:15:22.120Z,79.02
2022-11-22T12:17:55.960Z,79.40
2022-11-22T12:20:30.434Z,79.05
2022-11-22T12:23:18.283Z,79.49
2022-11-22T12:25:46.889Z,79.09
2022-11-22T12:28:20.204Z,79.16
2022-11-22T12:30:53.556Z,79.25
2022-11-22T12:33:25.850Z,78.72
2022-11-22T12:35:57.960Z,78.53
2022-11-22T12:38:33.224Z,78.97
2022-11-22T12:41:05.000Z,78.72
2022-11-22T12:43:40.345Z,79.07
2022-11-22T12:46:13.072Z,78.84
2022-11-22T12:48:48.938Z,78.57
2022-11-22T12:51:24.993Z,78.62
2022-11-22T12:54:01.872Z,79.06
2022-11-22T12:56:34.010Z,79.12
2022-11-22T12:59:09.956Z,78.97
2022-11-22T13:01:44.553Z,78.79
2022-11-22T13:04:20.367Z,79.31
2022-11-22T13:07:03.392Z,79.07
2022-11-22T13:09:59.971Z,79.20
2022-11-22T13:12:33.337Z,79.27
2022-11-22T13:15:02.685Z,78.62
2022-11-22T13:17:35.239Z,78.98
2022-11-22T13:20:10.488Z,79.22
2022-11-22T13:22:59.196Z,79.03
2022-11-22T13:25:54.557Z,79.15
2022-11-22T13:28:26.796Z,79.31
2022-11-22T13:31:17.536Z,78.69
2022-11-22T13:34:01.257Z,78.91
2022-11-22T13:36:47.766Z,79.04
2022-11-22T13:39:23.701Z,79.41
2022-11-22T13:42:08.043Z,79.34
2022-11-22T13:45:09.085Z,78.97
2022-11-22T13:47:46.001Z,78.63
2022-11-22T13:50:52.448Z,78.89
2022-11-22T13:53:29.808Z,79.03
2022-11-22T13:56:00.167Z,78.96
2022-11-22T13:58:55.672Z,79.12
2022-11-22T14:02:05.313Z,79.09
2022-11-22T14:04:41.570Z,78.74
2022-11-22T14:07:34.529Z,78.17
2022-11-22T14:10:03.931Z,78.58
2022-11-22T14:12:45.637Z,78.23
2022-11-22T14:15:26.092Z,78.45
2022-11-22T14:18:10.602Z,78.77
2022-11-22T14:20:55.975Z,78.83
2022-11-22T14:23:35.503Z,78.88
2022-11-22T14:26:26.909Z,79.13
2022-11-22T14:29:40.054Z,79.03
2022-11-22T14:32:23.205Z,78.96
2022-11-22T14:35:27.914Z,79.30
2022-11-22T14:38:16.725Z,79.29
2022-11-22T14:40:44.543Z,79.22
2022-11-22T14:43:35.520Z,79.75
2022-11-22T14:49:07.872Z,79.55
2022-11-22T14:51:36.689Z,80.39
2022-11-22T14:54:18.784Z,79.86
2022-11-22T14:56:47.625Z,80.38
2022-11-22T14:59:39.602Z,79.75
2022-11-22T15:02:40.136Z,79.37
2022-11-22T15:09:23.401Z,79.70
2022-11-22T15:09:23.874Z,79.88
2022-11-22T15:11:28.361Z,79.79
2022-11-22T15:14:13.362Z,79.81
2022-11-22T15:57:29.341Z,80.46
2022-11-22T15:59:58.163Z,80.93
2022-11-22T16:02:32.524Z,81.36
2022-11-22T16:06:08.698Z,81.44
2022-11-22T16:07:52.580Z,80.80
2022-11-22T16:10:22.870Z,80.84
2022-11-22T16:12:52.622Z,81.20
2022-11-22T16:15:43.067Z,81.24
2022-11-22T16:18:45.488Z,81.72
2022-11-22T16:21:29.259Z,81.42
2022-11-22T16:24:12.615Z,81.61
2022-11-22T16:26:40.971Z,81.51
2022-11-22T16:29:29.046Z,81.85
2022-11-22T16:32:06.741Z,81.89
2022-11-22T16:34:36.629Z,82.29
2022-11-22T16:37:26.568Z,82.65
2022-11-22T16:40:00.493Z,82.28
2022-11-22T16:42:29.039Z,82.43
2022-11-22T16:45:04.539Z,82.00
2022-11-22T16:47:32.837Z,82.27
2022-11-22T16:50:00.654Z,82.25
2022-11-22T16:52:28.762Z,82.25
2022-11-22T16:55:06.998Z,82.19
2022-11-22T16:57:34.918Z,81.27
2022-11-22T17:00:05.053Z,81.27
2022-11-22T17:02:35.871Z,81.52
2022-11-22T17:05:05.277Z,80.89
2022-11-22T17:07:39.318Z,80.31
2022-11-22T17:10:08.400Z,80.35
2022-11-22T17:12:36.254Z,80.75
2022-11-22T17:15:17.259Z,80.54
2022-11-22T17:17:47.871Z,80.47
2022-11-22T17:20:16.488Z,79.67
2022-11-22T17:22:53.307Z,80.12
2022-11-22T17:25:21.181Z,79.62
2022-11-22T17:27:53.887Z,79.63
2022-11-22T17:30:23.370Z,79.85
2022-11-22T17:32:53.205Z,80.23
2022-11-22T17:35:22.918Z,79.55
2022-11-22T17:37:56.685Z,79.83
2022-11-22T17:40:27.018Z,80.31
2022-11-22T17:42:58.117Z,79.61
2022-11-22T17:45:31.156Z,79.50
2022-11-22T17:48:02.018Z,80.40
2022-11-22T17:50:29.847Z,80.32
2022-11-22T17:53:03.806Z,80.12
2022-11-22T17:55:42.594Z,80.19
2022-11-22T17:58:28.816Z,80.58
2022-11-22T18:01:08.605Z,79.75
2022-11-22T18:03:36.937Z,79.88
2022-11-22T18:06:06.773Z,80.10
2022-11-22T18:08:35.250Z,80.51
2022-11-22T18:11:03.926Z,80.19
2022-11-22T18:13:35.501Z,79.89
2022-11-22T18:16:12.007Z,79.86
2022-11-22T18:18:56.228Z,79.79
2022-11-22T18:21:30.145Z,79.60
2022-11-22T18:23:58.693Z,79.53
2022-11-22T18:26:41.057Z,79.87
2022-11-22T18:29:41.067Z,80.30
2022-11-22T18:32:00.741Z,79.96
2022-11-22T18:34:29.758Z,79.99
2022-11-22T18:37:03.452Z,80.28
2022-11-22T18:39:33.588Z,80.21
2022-11-22T18:42:03.766Z,79.80
2022-11-22T18:44:32.033Z,80.04
2022-11-22T18:47:05.950Z,79.74
2022-11-22T18:49:34.213Z,79.83
2022-11-22T18:52:02.172Z,80.58
2022-11-22T18:54:30.639Z,80.90
2022-11-22T18:56:58.977Z,80.25
2022-11-22T18:59:27.165Z,80.32
2022-11-22T19:01:55.417Z,80.47
2022-11-22T19:04:28.029Z,80.09
2022-11-22T19:06:56.191Z,80.62
2022-11-22T19:09:24.092Z,80.45
2022-11-22T19:11:58.264Z,79.93
2022-11-22T19:14:29.921Z,79.94
2022-11-22T19:17:07.491Z,80.42
2022-11-22T19:19:37.027Z,80.34
2022-11-22T19:22:05.137Z,80.28
2022-11-22T19:24:35.678Z,79.91
2022-11-22T19:27:03.688Z,80.69
2022-11-22T19:29:31.878Z,80.37
2022-11-22T19:32:00.048Z,80.64
2022-11-22T19:34:54.644Z,80.23
2022-11-22T19:37:22.551Z,80.24
2022-11-22T19:39:50.483Z,80.02
2022-11-22T19:42:20.228Z,80.16
2022-11-22T19:44:54.070Z,79.88
2022-11-22T19:47:25.759Z,79.80
2022-11-22T19:49:58.074Z,80.12
2022-11-22T19:52:25.904Z,79.84
2022-11-22T19:54:53.693Z,80.61
2022-11-22T19:57:25.061Z,80.63
2022-11-22T20:00:00.560Z,80.30
2022-11-22T20:02:30.981Z,80.82
2022-11-22T20:05:00.274Z,80.67
2022-11-22T20:07:30.498Z,80.23
2022-11-22T20:09:58.954Z,80.36
2022-11-22T20:12:27.975Z,80.71
2022-11-22T20:14:55.773Z,80.86
2022-11-22T20:17:23.595Z,80.63
2022-11-22T20:19:51.510Z,80.25
2022-11-22T20:22:20.684Z,80.81
2022-11-22T20:24:48.542Z,80.09
2022-11-22T20:27:24.386Z,80.71
2022-11-22T20:29:52.621Z,80.26
2022-11-22T20:32:20.594Z,80.03
2022-11-22T20:34:54.474Z,79.75
2022-11-22T20:37:23.973Z,80.33
2022-11-22T20:39:53.786Z,79.89
2022-11-22T20:42:36.943Z,79.53
2022-11-22T20:45:08.881Z,80.19
2022-11-22T20:47:36.947Z,80.11
2022-11-22T20:50:09.062Z,79.62
2022-11-22T20:52:38.326Z,79.73
2022-11-22T20:55:10.472Z,79.21
2022-11-22T20:57:39.043Z,79.32
2022-11-22T21:00:07.867Z,79.46
2022-11-22T21:02:36.955Z,79.70
2022-11-22T21:05:16.880Z,79.31
2022-11-22T21:07:46.049Z,79.21
2022-11-22T21:10:13.863Z,79.46
2022-11-22T21:12:41.670Z,79.18
2022-11-22T21:15:10.358Z,79.47
2022-11-22T21:17:55.594Z,79.49
2022-11-22T21:20:31.844Z,79.49
2022-11-22T21:23:09.782Z,79.93
2022-11-22T21:25:38.033Z,79.89
2022-11-22T21:28:06.109Z,78.86
2022-11-22T21:30:37.469Z,79.07
2022-11-22T21:33:11.226Z,79.26
2022-11-22T21:35:39.644Z,78.95
2022-11-22T21:38:09.001Z,79.48
2022-11-22T21:40:37.057Z,79.25
2022-11-22T21:43:04.895Z,78.78
2022-11-22T21:45:32.906Z,78.79
2022-11-22T21:48:01.144Z,78.90
2022-11-22T21:50:29.708Z,79.14
2022-11-22T21:52:57.690Z,79.13
2022-11-22T21:55:27.096Z,78.53
2022-11-22T21:57:55.073Z,78.49
2022-11-22T22:00:23.921Z,78.92
2022-11-22T22:02:51.837Z,79.11
2022-11-22T22:05:20.079Z,78.94
2022-11-22T22:07:53.112Z,78.83
2022-11-22T22:10:21.434Z,78.27
2022-11-22T22:13:16.170Z,78.88
2022-11-22T22:15:44.172Z,78.72
2022-11-22T22:18:12.720Z,78.43
2022-11-22T22:20:40.918Z,78.71
2022-11-22T22:23:12.129Z,78.91
2022-11-22T22:25:41.551Z,78.77
2022-11-22T22:28:09.440Z,78.91
2022-11-22T22:30:39.528Z,78.49
2022-11-22T22:33:07.488Z,79.10
2022-11-22T22:35:35.969Z,78.51
2022-11-22T22:38:06.922Z,78.98
2022-11-22T22:40:37.666Z,78.94
2022-11-22T22:43:05.729Z,79.05
2022-11-22T22:45:36.126Z,79.59
2022-11-22T22:48:05.680Z,79.34
2022-11-22T22:50:37.612Z,79.47
2022-11-22T22:53:05.646Z,79.35
2022-11-22T22:55:33.741Z,79.36
2022-11-22T22:58:03.762Z,79.68
2022-11-22T23:00:31.919Z,79.44
2022-11-22T23:02:59.994Z,79.11
2022-11-22T23:05:31.890Z,79.49
2022-11-22T23:08:02.864Z,79.78
2022-11-22T23:10:55.975Z,79.80
2022-11-22T23:13:25.596Z,79.74
2022-11-22T23:15:59.090Z,79.42
2022-11-22T23:18:30.134Z,79.01
2022-11-22T23:21:07.064Z,79.18
2022-11-22T23:23:38.174Z,79.43
2022-11-22T23:26:09.233Z,79.12
2022-11-22T23:28:37.356Z,79.06
2022-11-22T23:31:06.975Z,79.41
2022-11-22T23:33:45.080Z,79.49
2022-11-22T23:36:16.354Z,79.74
2022-11-22T23:38:45.082Z,79.93
2022-11-22T23:41:17.256Z,79.79
2022-11-22T23:43:45.281Z,79.49
2022-11-22T23:46:16.175Z,79.42
2022-11-22T23:48:48.665Z,79.53
2022-11-22T23:51:18.005Z,80.06
2022-11-22T23:53:46.021Z,79.76
2022-11-22T23:56:20.451Z,79.77
2022-11-22T23:58:50.267Z,80.11
